sensor_id;sensor_type;location;lat;lon;timestamp;P1;durP1;ratioP1;P2;durP2;ratioP2
69985;SDS011;57328;52.054;5.294;2022-10-31T00:01:10;13.52;;;4.93;;
69985;SDS011;57328;52.054;5.294;2022-10-31T00:03:37;9.32;;;2.95;;
69985;SDS011;57328;52.054;5.294;2022-10-31T00:06:04;8.95;;;3.97;;
69985;SDS011;57328;52.054;5.294;2022-10-31T00:08:31;8.65;;;3.83;;
69985;SDS011;57328;52.054;5.294;2022-10-31T00:11:00;9.05;;;3.80;;
69985;SDS011;57328;52.054;5.294;2022-10-31T00:13:27;9.60;;;3.95;;
69985;SDS011;57328;52.054;5.294;2022-10-31T00:15:54;11.38;;;4.13;;
69985;SDS011;57328;52.054;5.294;2022-10-31T00:18:21;12.60;;;4.50;;
69985;SDS011;57328;52.054;5.294;2022-10-31T00:20:48;11.45;;;3.70;;
69985;SDS011;57328;52.054;5.294;2022-10-31T00:23:15;13.48;;;4.30;;
69985;SDS011;57328;52.054;5.294;2022-10-31T00:25:42;11.00;;;3.75;;
69985;SDS011;57328;52.054;5.294;2022-10-31T00:28:10;11.98;;;4.43;;
69985;SDS011;57328;52.054;5.294;2022-10-31T00:30:38;10.32;;;3.70;;
69985;SDS011;57328;52.054;5.294;2022-10-31T00:33:05;13.18;;;4.15;;
69985;SDS011;57328;52.054;5.294;2022-10-31T00:35:32;11.85;;;4.80;;
69985;SDS011;57328;52.054;5.294;2022-10-31T00:37:59;12.15;;;4.53;;
69985;SDS011;57328;52.054;5.294;2022-10-31T00:40:27;10.45;;;4.15;;
69985;SDS011;57328;52.054;5.294;2022-10-31T00:42:54;12.95;;;4.38;;
69985;SDS011;57328;52.054;5.294;2022-10-31T00:45:21;11.27;;;3.95;;
69985;SDS011;57328;52.054;5.294;2022-10-31T00:47:48;11.18;;;3.40;;
69985;SDS011;57328;52.054;5.294;2022-10-31T00:50:15;9.60;;;4.20;;
69985;SDS011;57328;52.054;5.294;2022-10-31T00:52:43;11.60;;;3.75;;
69985;SDS011;57328;52.054;5.294;2022-10-31T00:55:10;7.45;;;2.85;;
69985;SDS011;57328;52.054;5.294;2022-10-31T00:57:37;7.47;;;3.10;;
69985;SDS011;57328;52.054;5.294;2022-10-31T01:00:04;11.13;;;4.07;;
69985;SDS011;57328;52.054;5.294;2022-10-31T01:02:31;9.32;;;3.72;;
69985;SDS011;57328;52.054;5.294;2022-10-31T01:04:59;11.00;;;4.38;;
69985;SDS011;57328;52.054;5.294;2022-10-31T01:07:26;10.13;;;3.10;;
69985;SDS011;57328;52.054;5.294;2022-10-31T01:09:53;7.28;;;3.30;;
69985;SDS011;57328;52.054;5.294;2022-10-31T01:12:20;8.07;;;2.88;;
69985;SDS011;57328;52.054;5.294;2022-10-31T01:14:47;10.75;;;3.92;;
69985;SDS011;57328;52.054;5.294;2022-10-31T01:17:15;11.13;;;3.45;;
69985;SDS011;57328;52.054;5.294;2022-10-31T01:19:42;8.75;;;4.10;;
69985;SDS011;57328;52.054;5.294;2022-10-31T01:22:09;18.45;;;5.10;;
69985;SDS011;57328;52.054;5.294;2022-10-31T01:24:36;17.00;;;6.13;;
69985;SDS011;57328;52.054;5.294;2022-10-31T01:27:03;11.13;;;4.05;;
69985;SDS011;57328;52.054;5.294;2022-10-31T01:29:30;14.45;;;5.40;;
69985;SDS011;57328;52.054;5.294;2022-10-31T01:31:57;11.45;;;3.33;;
69985;SDS011;57328;52.054;5.294;2022-10-31T01:34:25;15.23;;;5.00;;
69985;SDS011;57328;52.054;5.294;2022-10-31T01:36:52;9.75;;;3.33;;
69985;SDS011;57328;52.054;5.294;2022-10-31T01:39:19;8.25;;;3.10;;
69985;SDS011;57328;52.054;5.294;2022-10-31T01:41:47;11.70;;;3.70;;
69985;SDS011;57328;52.054;5.294;2022-10-31T01:49:21;10.95;;;3.38;;
69985;SDS011;57328;52.054;5.294;2022-10-31T01:51:55;12.18;;;4.18;;
69985;SDS011;57328;52.054;5.294;2022-10-31T01:54:24;12.30;;;4.25;;
69985;SDS011;57328;52.054;5.294;2022-10-31T01:56:53;9.00;;;2.53;;
69985;SDS011;57328;52.054;5.294;2022-10-31T01:59:23;7.97;;;3.15;;
69985;SDS011;57328;52.054;5.294;2022-10-31T02:01:51;15.80;;;4.57;;
69985;SDS011;57328;52.054;5.294;2022-10-31T02:04:19;12.95;;;4.10;;
69985;SDS011;57328;52.054;5.294;2022-10-31T02:06:48;11.88;;;4.20;;
69985;SDS011;57328;52.054;5.294;2022-10-31T02:09:16;11.68;;;4.65;;
69985;SDS011;57328;52.054;5.294;2022-10-31T02:11:44;13.23;;;4.70;;
69985;SDS011;57328;52.054;5.294;2022-10-31T02:14:11;10.25;;;4.05;;
69985;SDS011;57328;52.054;5.294;2022-10-31T02:16:39;11.65;;;4.30;;
69985;SDS011;57328;52.054;5.294;2022-10-31T02:19:06;13.18;;;4.28;;
69985;SDS011;57328;52.054;5.294;2022-10-31T02:21:44;14.80;;;4.82;;
69985;SDS011;57328;52.054;5.294;2022-10-31T02:26:46;11.90;;;4.53;;
69985;SDS011;57328;52.054;5.294;2022-10-31T02:29:53;12.35;;;4.65;;
69985;SDS011;57328;52.054;5.294;2022-10-31T02:32:19;12.02;;;4.00;;
69985;SDS011;57328;52.054;5.294;2022-10-31T02:34:58;15.70;;;4.32;;
69985;SDS011;57328;52.054;5.294;2022-10-31T02:38:12;9.93;;;3.42;;
69985;SDS011;57328;52.054;5.294;2022-10-31T02:40:19;9.55;;;4.22;;
69985;SDS011;57328;52.054;5.294;2022-10-31T02:42:58;12.93;;;4.45;;
69985;SDS011;57328;52.054;5.294;2022-10-31T02:45:30;7.30;;;3.05;;
69985;SDS011;57328;52.054;5.294;2022-10-31T02:48:01;9.98;;;3.47;;
69985;SDS011;57328;52.054;5.294;2022-10-31T02:50:33;6.60;;;2.53;;
69985;SDS011;57328;52.054;5.294;2022-10-31T02:53:02;14.93;;;4.72;;
69985;SDS011;57328;52.054;5.294;2022-10-31T02:57:57;8.40;;;2.97;;
69985;SDS011;57328;52.054;5.294;2022-10-31T03:00:27;4.53;;;1.70;;
69985;SDS011;57328;52.054;5.294;2022-10-31T03:05:45;10.30;;;4.20;;
69985;SDS011;57328;52.054;5.294;2022-10-31T03:08:24;11.55;;;3.80;;
69985;SDS011;57328;52.054;5.294;2022-10-31T03:10:54;11.00;;;3.78;;
69985;SDS011;57328;52.054;5.294;2022-10-31T03:18:40;12.60;;;5.22;;
69985;SDS011;57328;52.054;5.294;2022-10-31T03:21:09;11.45;;;4.65;;
69985;SDS011;57328;52.054;5.294;2022-10-31T03:23:38;7.82;;;2.22;;
69985;SDS011;57328;52.054;5.294;2022-10-31T03:26:06;8.07;;;2.63;;
69985;SDS011;57328;52.054;5.294;2022-10-31T03:28:36;9.23;;;4.57;;
69985;SDS011;57328;52.054;5.294;2022-10-31T03:31:05;9.85;;;4.47;;
69985;SDS011;57328;52.054;5.294;2022-10-31T03:33:34;13.60;;;4.60;;
69985;SDS011;57328;52.054;5.294;2022-10-31T03:36:02;8.40;;;3.45;;
69985;SDS011;57328;52.054;5.294;2022-10-31T03:38:30;8.73;;;4.20;;
69985;SDS011;57328;52.054;5.294;2022-10-31T03:40:58;7.53;;;3.45;;
69985;SDS011;57328;52.054;5.294;2022-10-31T03:43:28;6.97;;;2.60;;
69985;SDS011;57328;52.054;5.294;2022-10-31T03:45:57;9.82;;;3.78;;
69985;SDS011;57328;52.054;5.294;2022-10-31T03:48:24;10.70;;;4.90;;
69985;SDS011;57328;52.054;5.294;2022-10-31T03:51:05;13.40;;;4.78;;
69985;SDS011;57328;52.054;5.294;2022-10-31T03:53:34;11.95;;;4.88;;
69985;SDS011;57328;52.054;5.294;2022-10-31T03:56:11;12.82;;;4.63;;
69985;SDS011;57328;52.054;5.294;2022-10-31T03:58:42;12.40;;;4.80;;
69985;SDS011;57328;52.054;5.294;2022-10-31T04:01:12;10.98;;;4.80;;
69985;SDS011;57328;52.054;5.294;2022-10-31T04:03:42;8.60;;;3.97;;
69985;SDS011;57328;52.054;5.294;2022-10-31T04:06:10;13.25;;;5.35;;
69985;SDS011;57328;52.054;5.294;2022-10-31T04:08:51;8.13;;;3.58;;
69985;SDS011;57328;52.054;5.294;2022-10-31T04:11:21;9.63;;;3.75;;
69985;SDS011;57328;52.054;5.294;2022-10-31T04:13:49;15.82;;;5.72;;
69985;SDS011;57328;52.054;5.294;2022-10-31T04:16:18;11.25;;;4.18;;
69985;SDS011;57328;52.054;5.294;2022-10-31T04:18:45;10.73;;;4.45;;
69985;SDS011;57328;52.054;5.294;2022-10-31T04:21:12;9.13;;;2.85;;
69985;SDS011;57328;52.054;5.294;2022-10-31T04:23:39;10.38;;;4.32;;
69985;SDS011;57328;52.054;5.294;2022-10-31T04:26:07;11.00;;;4.95;;
69985;SDS011;57328;52.054;5.294;2022-10-31T04:28:35;11.45;;;4.32;;
69985;SDS011;57328;52.054;5.294;2022-10-31T04:31:02;8.80;;;4.40;;
69985;SDS011;57328;52.054;5.294;2022-10-31T04:33:29;12.93;;;5.13;;
69985;SDS011;57328;52.054;5.294;2022-10-31T04:35:56;10.50;;;4.35;;
69985;SDS011;57328;52.054;5.294;2022-10-31T04:38:23;10.07;;;3.95;;
69985;SDS011;57328;52.054;5.294;2022-10-31T04:40:51;12.40;;;5.05;;
69985;SDS011;57328;52.054;5.294;2022-10-31T04:43:18;11.77;;;5.00;;
69985;SDS011;57328;52.054;5.294;2022-10-31T04:45:50;13.73;;;5.25;;
69985;SDS011;57328;52.054;5.294;2022-10-31T04:48:17;9.80;;;4.07;;
69985;SDS011;57328;52.054;5.294;2022-10-31T04:50:44;10.70;;;4.13;;
69985;SDS011;57328;52.054;5.294;2022-10-31T04:53:12;10.68;;;3.90;;
69985;SDS011;57328;52.054;5.294;2022-10-31T04:55:39;8.48;;;3.75;;
69985;SDS011;57328;52.054;5.294;2022-10-31T04:58:06;9.73;;;4.85;;
69985;SDS011;57328;52.054;5.294;2022-10-31T05:00:33;9.05;;;3.47;;
69985;SDS011;57328;52.054;5.294;2022-10-31T05:03:00;11.95;;;4.95;;
69985;SDS011;57328;52.054;5.294;2022-10-31T05:05:30;11.60;;;4.70;;
69985;SDS011;57328;52.054;5.294;2022-10-31T05:07:57;10.55;;;3.63;;
69985;SDS011;57328;52.054;5.294;2022-10-31T05:10:25;13.38;;;5.38;;
69985;SDS011;57328;52.054;5.294;2022-10-31T05:12:57;13.98;;;5.45;;
69985;SDS011;57328;52.054;5.294;2022-10-31T05:15:25;18.25;;;5.45;;
69985;SDS011;57328;52.054;5.294;2022-10-31T05:17:53;10.15;;;4.13;;
69985;SDS011;57328;52.054;5.294;2022-10-31T05:20:21;12.40;;;6.10;;
69985;SDS011;57328;52.054;5.294;2022-10-31T05:22:50;11.13;;;4.97;;
69985;SDS011;57328;52.054;5.294;2022-10-31T05:25:18;12.82;;;6.30;;
69985;SDS011;57328;52.054;5.294;2022-10-31T05:27:46;12.45;;;5.30;;
69985;SDS011;57328;52.054;5.294;2022-10-31T05:30:14;7.40;;;2.95;;
69985;SDS011;57328;52.054;5.294;2022-10-31T05:32:44;9.38;;;2.88;;
69985;SDS011;57328;52.054;5.294;2022-10-31T05:35:12;14.55;;;6.18;;
69985;SDS011;57328;52.054;5.294;2022-10-31T05:37:39;14.50;;;5.82;;
69985;SDS011;57328;52.054;5.294;2022-10-31T05:40:07;16.10;;;6.20;;
69985;SDS011;57328;52.054;5.294;2022-10-31T05:42:35;17.00;;;6.30;;
69985;SDS011;57328;52.054;5.294;2022-10-31T05:45:02;17.73;;;6.90;;
69985;SDS011;57328;52.054;5.294;2022-10-31T05:47:29;20.02;;;6.93;;
69985;SDS011;57328;52.054;5.294;2022-10-31T05:49:56;29.88;;;9.98;;
69985;SDS011;57328;52.054;5.294;2022-10-31T05:52:24;28.20;;;9.70;;
69985;SDS011;57328;52.054;5.294;2022-10-31T05:54:51;19.50;;;8.20;;
69985;SDS011;57328;52.054;5.294;2022-10-31T05:57:18;36.47;;;9.85;;
69985;SDS011;57328;52.054;5.294;2022-10-31T05:59:45;36.08;;;12.05;;
69985;SDS011;57328;52.054;5.294;2022-10-31T06:02:20;30.02;;;10.25;;
69985;SDS011;57328;52.054;5.294;2022-10-31T06:04:47;66.93;;;12.95;;
69985;SDS011;57328;52.054;5.294;2022-10-31T06:07:14;32.28;;;11.00;;
69985;SDS011;57328;52.054;5.294;2022-10-31T06:09:41;46.42;;;13.82;;
69985;SDS011;57328;52.054;5.294;2022-10-31T06:12:08;38.47;;;13.63;;
69985;SDS011;57328;52.054;5.294;2022-10-31T06:14:36;34.17;;;13.23;;
69985;SDS011;57328;52.054;5.294;2022-10-31T06:17:03;35.42;;;12.32;;
69985;SDS011;57328;52.054;5.294;2022-10-31T06:19:30;35.03;;;13.80;;
69985;SDS011;57328;52.054;5.294;2022-10-31T06:21:57;44.10;;;15.25;;
69985;SDS011;57328;52.054;5.294;2022-10-31T06:24:24;44.38;;;15.73;;
69985;SDS011;57328;52.054;5.294;2022-10-31T06:26:51;42.40;;;15.60;;
69985;SDS011;57328;52.054;5.294;2022-10-31T06:29:18;39.42;;;14.20;;
69985;SDS011;57328;52.054;5.294;2022-10-31T06:31:46;35.17;;;15.02;;
69985;SDS011;57328;52.054;5.294;2022-10-31T06:34:13;37.25;;;15.02;;
69985;SDS011;57328;52.054;5.294;2022-10-31T06:36:40;43.92;;;16.35;;
69985;SDS011;57328;52.054;5.294;2022-10-31T06:39:07;39.35;;;15.68;;
69985;SDS011;57328;52.054;5.294;2022-10-31T06:41:34;47.80;;;16.38;;
69985;SDS011;57328;52.054;5.294;2022-10-31T06:44:02;33.22;;;13.98;;
69985;SDS011;57328;52.054;5.294;2022-10-31T06:46:34;35.83;;;14.13;;
69985;SDS011;57328;52.054;5.294;2022-10-31T06:49:01;42.35;;;15.35;;
69985;SDS011;57328;52.054;5.294;2022-10-31T06:51:28;43.25;;;14.70;;
69985;SDS011;57328;52.054;5.294;2022-10-31T06:53:55;37.95;;;13.63;;
69985;SDS011;57328;52.054;5.294;2022-10-31T06:56:22;45.50;;;15.40;;
69985;SDS011;57328;52.054;5.294;2022-10-31T06:58:49;38.97;;;14.65;;
69985;SDS011;57328;52.054;5.294;2022-10-31T07:01:16;30.90;;;12.73;;
69985;SDS011;57328;52.054;5.294;2022-10-31T07:03:44;40.22;;;14.10;;
69985;SDS011;57328;52.054;5.294;2022-10-31T07:06:11;36.53;;;13.85;;
69985;SDS011;57328;52.054;5.294;2022-10-31T07:08:38;35.58;;;13.27;;
69985;SDS011;57328;52.054;5.294;2022-10-31T07:11:06;40.10;;;14.50;;
69985;SDS011;57328;52.054;5.294;2022-10-31T07:13:33;36.92;;;13.23;;
69985;SDS011;57328;52.054;5.294;2022-10-31T07:16:00;41.55;;;15.48;;
69985;SDS011;57328;52.054;5.294;2022-10-31T07:18:28;43.88;;;14.82;;
69985;SDS011;57328;52.054;5.294;2022-10-31T07:20:55;50.03;;;16.63;;
69985;SDS011;57328;52.054;5.294;2022-10-31T07:23:22;54.65;;;16.55;;
69985;SDS011;57328;52.054;5.294;2022-10-31T07:25:54;53.42;;;16.20;;
69985;SDS011;57328;52.054;5.294;2022-10-31T07:28:21;34.97;;;13.68;;
69985;SDS011;57328;52.054;5.294;2022-10-31T07:30:55;44.20;;;16.10;;
69985;SDS011;57328;52.054;5.294;2022-10-31T07:33:22;48.40;;;14.60;;
69985;SDS011;57328;52.054;5.294;2022-10-31T07:35:51;53.08;;;16.95;;
69985;SDS011;57328;52.054;5.294;2022-10-31T07:38:19;49.00;;;17.33;;
69985;SDS011;57328;52.054;5.294;2022-10-31T07:40:49;29.63;;;13.20;;
69985;SDS011;57328;52.054;5.294;2022-10-31T07:43:17;47.55;;;14.32;;
69985;SDS011;57328;52.054;5.294;2022-10-31T07:45:50;41.83;;;15.80;;
69985;SDS011;57328;52.054;5.294;2022-10-31T07:48:17;35.28;;;14.82;;
69985;SDS011;57328;52.054;5.294;2022-10-31T07:50:44;36.58;;;13.82;;
69985;SDS011;57328;52.054;5.294;2022-10-31T07:53:12;38.20;;;14.60;;
69985;SDS011;57328;52.054;5.294;2022-10-31T07:55:40;40.92;;;13.75;;
69985;SDS011;57328;52.054;5.294;2022-10-31T07:58:11;28.50;;;13.98;;
69985;SDS011;57328;52.054;5.294;2022-10-31T08:00:39;39.90;;;14.57;;
69985;SDS011;57328;52.054;5.294;2022-10-31T08:03:08;47.78;;;16.58;;
69985;SDS011;57328;52.054;5.294;2022-10-31T08:05:35;42.05;;;15.48;;
69985;SDS011;57328;52.054;5.294;2022-10-31T08:08:03;58.03;;;19.23;;
69985;SDS011;57328;52.054;5.294;2022-10-31T08:10:30;43.00;;;17.17;;
69985;SDS011;57328;52.054;5.294;2022-10-31T08:12:58;72.07;;;24.83;;
69985;SDS011;57328;52.054;5.294;2022-10-31T08:15:26;51.13;;;19.83;;
69985;SDS011;57328;52.054;5.294;2022-10-31T08:17:53;44.92;;;18.67;;
69985;SDS011;57328;52.054;5.294;2022-10-31T08:20:21;46.05;;;18.88;;
69985;SDS011;57328;52.054;5.294;2022-10-31T08:22:54;32.15;;;15.63;;
69985;SDS011;57328;52.054;5.294;2022-10-31T08:25:22;32.75;;;15.43;;
69985;SDS011;57328;52.054;5.294;2022-10-31T08:27:50;36.63;;;15.05;;
69985;SDS011;57328;52.054;5.294;2022-10-31T08:30:18;32.20;;;15.30;;
69985;SDS011;57328;52.054;5.294;2022-10-31T08:32:46;34.03;;;14.52;;
69985;SDS011;57328;52.054;5.294;2022-10-31T08:35:13;39.15;;;16.45;;
69985;SDS011;57328;52.054;5.294;2022-10-31T08:37:41;35.58;;;16.50;;
69985;SDS011;57328;52.054;5.294;2022-10-31T08:40:08;35.60;;;16.10;;
69985;SDS011;57328;52.054;5.294;2022-10-31T08:42:35;35.38;;;16.05;;
69985;SDS011;57328;52.054;5.294;2022-10-31T08:45:03;35.80;;;16.35;;
69985;SDS011;57328;52.054;5.294;2022-10-31T08:47:30;36.55;;;16.27;;
69985;SDS011;57328;52.054;5.294;2022-10-31T08:49:57;28.45;;;14.40;;
69985;SDS011;57328;52.054;5.294;2022-10-31T08:52:24;33.65;;;15.13;;
69985;SDS011;57328;52.054;5.294;2022-10-31T08:55:12;33.45;;;16.60;;
69985;SDS011;57328;52.054;5.294;2022-10-31T08:57:39;32.40;;;15.73;;
69985;SDS011;57328;52.054;5.294;2022-10-31T09:00:06;35.30;;;16.55;;
69985;SDS011;57328;52.054;5.294;2022-10-31T09:02:34;36.03;;;16.50;;
69985;SDS011;57328;52.054;5.294;2022-10-31T09:05:01;32.17;;;14.90;;
69985;SDS011;57328;52.054;5.294;2022-10-31T09:07:28;32.88;;;16.45;;
69985;SDS011;57328;52.054;5.294;2022-10-31T09:09:55;34.97;;;16.48;;
69985;SDS011;57328;52.054;5.294;2022-10-31T09:12:22;34.58;;;16.20;;
69985;SDS011;57328;52.054;5.294;2022-10-31T09:14:50;35.10;;;16.55;;
69985;SDS011;57328;52.054;5.294;2022-10-31T09:17:17;34.53;;;17.02;;
69985;SDS011;57328;52.054;5.294;2022-10-31T09:19:44;36.70;;;17.00;;
69985;SDS011;57328;52.054;5.294;2022-10-31T09:22:11;30.77;;;16.17;;
69985;SDS011;57328;52.054;5.294;2022-10-31T09:24:38;36.58;;;17.48;;
69985;SDS011;57328;52.054;5.294;2022-10-31T09:27:06;36.45;;;16.58;;
69985;SDS011;57328;52.054;5.294;2022-10-31T09:29:35;36.25;;;16.52;;
69985;SDS011;57328;52.054;5.294;2022-10-31T09:32:02;35.05;;;17.48;;
69985;SDS011;57328;52.054;5.294;2022-10-31T09:34:29;32.83;;;15.57;;
69985;SDS011;57328;52.054;5.294;2022-10-31T09:36:56;39.63;;;17.60;;
69985;SDS011;57328;52.054;5.294;2022-10-31T09:39:23;32.05;;;15.45;;
69985;SDS011;57328;52.054;5.294;2022-10-31T09:44:31;27.83;;;14.40;;
69985;SDS011;57328;52.054;5.294;2022-10-31T09:47:02;26.85;;;13.60;;
69985;SDS011;57328;52.054;5.294;2022-10-31T09:52:03;26.80;;;14.18;;
69985;SDS011;57328;52.054;5.294;2022-10-31T09:54:34;23.48;;;13.40;;
69985;SDS011;57328;52.054;5.294;2022-10-31T09:57:02;29.50;;;14.45;;
69985;SDS011;57328;52.054;5.294;2022-10-31T09:59:34;28.20;;;14.52;;
69985;SDS011;57328;52.054;5.294;2022-10-31T10:02:06;27.42;;;13.35;;
69985;SDS011;57328;52.054;5.294;2022-10-31T10:04:42;22.85;;;13.02;;
69985;SDS011;57328;52.054;5.294;2022-10-31T10:09:43;25.15;;;12.95;;
69985;SDS011;57328;52.054;5.294;2022-10-31T10:15:13;24.52;;;12.73;;
69985;SDS011;57328;52.054;5.294;2022-10-31T10:20:28;20.17;;;10.35;;
69985;SDS011;57328;52.054;5.294;2022-10-31T10:23:09;22.67;;;12.52;;
69985;SDS011;57328;52.054;5.294;2022-10-31T10:25:40;21.25;;;11.43;;
69985;SDS011;57328;52.054;5.294;2022-10-31T10:28:20;21.92;;;12.52;;
69985;SDS011;57328;52.054;5.294;2022-10-31T10:33:23;25.35;;;13.18;;
69985;SDS011;57328;52.054;5.294;2022-10-31T10:35:55;24.38;;;12.80;;
69985;SDS011;57328;52.054;5.294;2022-10-31T10:38:28;22.90;;;12.38;;
69985;SDS011;57328;52.054;5.294;2022-10-31T10:40:59;27.23;;;13.10;;
69985;SDS011;57328;52.054;5.294;2022-10-31T10:43:35;23.13;;;12.27;;
69985;SDS011;57328;52.054;5.294;2022-10-31T10:51:56;25.38;;;12.50;;
69985;SDS011;57328;52.054;5.294;2022-10-31T10:54:56;26.67;;;12.68;;
69985;SDS011;57328;52.054;5.294;2022-10-31T10:57:36;29.33;;;13.48;;
69985;SDS011;57328;52.054;5.294;2022-10-31T11:00:19;23.88;;;11.88;;
69985;SDS011;57328;52.054;5.294;2022-10-31T11:02:46;26.88;;;12.65;;
69985;SDS011;57328;52.054;5.294;2022-10-31T11:05:36;29.35;;;13.20;;
69985;SDS011;57328;52.054;5.294;2022-10-31T11:08:03;30.73;;;13.88;;
69985;SDS011;57328;52.054;5.294;2022-10-31T11:10:31;25.88;;;12.90;;
69985;SDS011;57328;52.054;5.294;2022-10-31T11:13:06;24.98;;;12.45;;
69985;SDS011;57328;52.054;5.294;2022-10-31T11:18:01;27.40;;;11.98;;
69985;SDS011;57328;52.054;5.294;2022-10-31T11:20:30;32.58;;;13.43;;
69985;SDS011;57328;52.054;5.294;2022-10-31T11:23:02;25.95;;;11.30;;
69985;SDS011;57328;52.054;5.294;2022-10-31T11:25:30;29.30;;;12.20;;
69985;SDS011;57328;52.054;5.294;2022-10-31T11:28:04;27.83;;;12.65;;
69985;SDS011;57328;52.054;5.294;2022-10-31T11:30:42;28.85;;;12.55;;
69985;SDS011;57328;52.054;5.294;2022-10-31T11:36:16;25.13;;;12.23;;
69985;SDS011;57328;52.054;5.294;2022-10-31T11:38:45;31.52;;;13.63;;
69985;SDS011;57328;52.054;5.294;2022-10-31T11:41:14;27.75;;;12.50;;
69985;SDS011;57328;52.054;5.294;2022-10-31T11:43:47;26.23;;;12.75;;
69985;SDS011;57328;52.054;5.294;2022-10-31T11:46:18;27.00;;;12.27;;
69985;SDS011;57328;52.054;5.294;2022-10-31T11:48:48;27.70;;;13.18;;
69985;SDS011;57328;52.054;5.294;2022-10-31T11:51:32;26.95;;;13.07;;
69985;SDS011;57328;52.054;5.294;2022-10-31T11:54:00;26.38;;;10.70;;
69985;SDS011;57328;52.054;5.294;2022-10-31T11:56:38;29.75;;;11.77;;
69985;SDS011;57328;52.054;5.294;2022-10-31T11:59:14;30.33;;;13.68;;
69985;SDS011;57328;52.054;5.294;2022-10-31T12:01:46;32.50;;;13.70;;
69985;SDS011;57328;52.054;5.294;2022-10-31T12:04:14;33.05;;;13.18;;
69985;SDS011;57328;52.054;5.294;2022-10-31T12:06:43;32.40;;;13.82;;
69985;SDS011;57328;52.054;5.294;2022-10-31T12:11:52;36.05;;;13.90;;
69985;SDS011;57328;52.054;5.294;2022-10-31T12:24:56;40.75;;;14.93;;
69985;SDS011;57328;52.054;5.294;2022-10-31T12:32:57;34.38;;;14.23;;
69985;SDS011;57328;52.054;5.294;2022-10-31T12:43:09;36.78;;;15.18;;
69985;SDS011;57328;52.054;5.294;2022-10-31T12:55:44;32.10;;;14.23;;
69985;SDS011;57328;52.054;5.294;2022-10-31T13:00:48;32.08;;;14.45;;
69985;SDS011;57328;52.054;5.294;2022-10-31T13:03:30;38.88;;;15.35;;
69985;SDS011;57328;52.054;5.294;2022-10-31T13:06:03;30.95;;;13.18;;
69985;SDS011;57328;52.054;5.294;2022-10-31T13:08:45;34.58;;;14.13;;
69985;SDS011;57328;52.054;5.294;2022-10-31T13:11:28;34.90;;;14.85;;
69985;SDS011;57328;52.054;5.294;2022-10-31T13:14:00;33.60;;;15.23;;
69985;SDS011;57328;52.054;5.294;2022-10-31T13:16:29;36.42;;;15.35;;
69985;SDS011;57328;52.054;5.294;2022-10-31T13:18:58;34.88;;;15.40;;
69985;SDS011;57328;52.054;5.294;2022-10-31T13:21:33;37.72;;;14.88;;
69985;SDS011;57328;52.054;5.294;2022-10-31T13:24:02;32.85;;;14.68;;
69985;SDS011;57328;52.054;5.294;2022-10-31T13:26:34;36.78;;;16.02;;
69985;SDS011;57328;52.054;5.294;2022-10-31T13:29:05;38.28;;;15.52;;
69985;SDS011;57328;52.054;5.294;2022-10-31T13:31:35;31.67;;;14.15;;
69985;SDS011;57328;52.054;5.294;2022-10-31T13:34:09;28.92;;;13.45;;
69985;SDS011;57328;52.054;5.294;2022-10-31T13:36:39;35.63;;;14.90;;
69985;SDS011;57328;52.054;5.294;2022-10-31T13:39:13;34.70;;;14.48;;
69985;SDS011;57328;52.054;5.294;2022-10-31T13:41:45;32.58;;;14.35;;
69985;SDS011;57328;52.054;5.294;2022-10-31T13:46:41;31.20;;;14.10;;
69985;SDS011;57328;52.054;5.294;2022-10-31T13:54:38;35.63;;;14.93;;
69985;SDS011;57328;52.054;5.294;2022-10-31T13:57:16;37.08;;;14.43;;
69985;SDS011;57328;52.054;5.294;2022-10-31T13:59:51;33.28;;;14.40;;
69985;SDS011;57328;52.054;5.294;2022-10-31T14:02:26;34.85;;;14.32;;
69985;SDS011;57328;52.054;5.294;2022-10-31T14:04:56;33.47;;;14.50;;
69985;SDS011;57328;52.054;5.294;2022-10-31T14:07:24;36.03;;;14.50;;
69985;SDS011;57328;52.054;5.294;2022-10-31T14:10:04;32.47;;;13.75;;
69985;SDS011;57328;52.054;5.294;2022-10-31T14:12:33;31.38;;;14.27;;
69985;SDS011;57328;52.054;5.294;2022-10-31T14:15:04;38.35;;;15.50;;
69985;SDS011;57328;52.054;5.294;2022-10-31T14:17:36;32.17;;;13.60;;
69985;SDS011;57328;52.054;5.294;2022-10-31T14:22:39;35.53;;;14.05;;
69985;SDS011;57328;52.054;5.294;2022-10-31T14:30:57;37.22;;;15.15;;
69985;SDS011;57328;52.054;5.294;2022-10-31T14:44:07;34.67;;;13.63;;
69985;SDS011;57328;52.054;5.294;2022-10-31T14:46:44;38.28;;;14.70;;
69985;SDS011;57328;52.054;5.294;2022-10-31T14:49:36;34.05;;;12.73;;
69985;SDS011;57328;52.054;5.294;2022-10-31T14:52:07;36.50;;;14.98;;
69985;SDS011;57328;52.054;5.294;2022-10-31T14:54:35;31.95;;;13.63;;
69985;SDS011;57328;52.054;5.294;2022-10-31T14:57:05;39.60;;;13.95;;
69985;SDS011;57328;52.054;5.294;2022-10-31T14:59:35;32.40;;;13.82;;
69985;SDS011;57328;52.054;5.294;2022-10-31T15:02:12;35.40;;;14.27;;
69985;SDS011;57328;52.054;5.294;2022-10-31T15:04:42;29.25;;;11.90;;
69985;SDS011;57328;52.054;5.294;2022-10-31T15:07:18;34.20;;;13.30;;
69985;SDS011;57328;52.054;5.294;2022-10-31T15:09:57;40.10;;;13.77;;
69985;SDS011;57328;52.054;5.294;2022-10-31T15:14:51;31.77;;;12.70;;
69985;SDS011;57328;52.054;5.294;2022-10-31T15:17:19;34.20;;;12.80;;
69985;SDS011;57328;52.054;5.294;2022-10-31T15:19:47;31.58;;;13.88;;
69985;SDS011;57328;52.054;5.294;2022-10-31T15:22:15;32.55;;;12.30;;
69985;SDS011;57328;52.054;5.294;2022-10-31T15:27:11;32.83;;;13.15;;
69985;SDS011;57328;52.054;5.294;2022-10-31T15:29:47;29.35;;;11.68;;
69985;SDS011;57328;52.054;5.294;2022-10-31T15:32:18;34.00;;;12.85;;
69985;SDS011;57328;52.054;5.294;2022-10-31T15:34:46;30.70;;;13.23;;
69985;SDS011;57328;52.054;5.294;2022-10-31T15:37:14;30.63;;;13.07;;
69985;SDS011;57328;52.054;5.294;2022-10-31T15:44:36;29.50;;;12.60;;
69985;SDS011;57328;52.054;5.294;2022-10-31T15:47:12;32.92;;;12.32;;
69985;SDS011;57328;52.054;5.294;2022-10-31T15:49:47;31.58;;;12.48;;
69985;SDS011;57328;52.054;5.294;2022-10-31T15:55:02;30.55;;;13.05;;
69985;SDS011;57328;52.054;5.294;2022-10-31T15:57:30;34.47;;;12.30;;
69985;SDS011;57328;52.054;5.294;2022-10-31T15:59:57;29.40;;;12.88;;
69985;SDS011;57328;52.054;5.294;2022-10-31T16:02:25;33.33;;;13.40;;
69985;SDS011;57328;52.054;5.294;2022-10-31T16:04:59;34.85;;;13.15;;
69985;SDS011;57328;52.054;5.294;2022-10-31T16:07:30;33.42;;;13.88;;
69985;SDS011;57328;52.054;5.294;2022-10-31T16:09:58;34.17;;;13.15;;
69985;SDS011;57328;52.054;5.294;2022-10-31T16:12:30;37.58;;;13.82;;
69985;SDS011;57328;52.054;5.294;2022-10-31T16:14:58;28.98;;;11.18;;
69985;SDS011;57328;52.054;5.294;2022-10-31T16:17:26;40.10;;;13.80;;
69985;SDS011;57328;52.054;5.294;2022-10-31T16:19:58;42.28;;;14.57;;
69985;SDS011;57328;52.054;5.294;2022-10-31T16:22:27;31.48;;;12.13;;
69985;SDS011;57328;52.054;5.294;2022-10-31T16:24:56;33.92;;;13.23;;
69985;SDS011;57328;52.054;5.294;2022-10-31T16:27:27;32.85;;;13.75;;
69985;SDS011;57328;52.054;5.294;2022-10-31T16:29:55;37.50;;;14.27;;
69985;SDS011;57328;52.054;5.294;2022-10-31T16:32:28;34.10;;;12.82;;
69985;SDS011;57328;52.054;5.294;2022-10-31T16:35:16;33.97;;;13.05;;
69985;SDS011;57328;52.054;5.294;2022-10-31T16:37:43;34.60;;;12.77;;
69985;SDS011;57328;52.054;5.294;2022-10-31T16:40:11;34.22;;;14.18;;
69985;SDS011;57328;52.054;5.294;2022-10-31T16:42:42;33.17;;;14.07;;
69985;SDS011;57328;52.054;5.294;2022-10-31T16:45:17;33.90;;;12.45;;
69985;SDS011;57328;52.054;5.294;2022-10-31T16:47:45;38.13;;;16.60;;